Time;durP1;ratioP1;P1;durP2;ratioP2;P2;SDS_P1;SDS_P2;PMS_P1;PMS_P2;Temp;Humidity;BMP_temperature;BMP_pressure;BME280_temperature;BME280_humidity;BME280_pressure;Samples;Min_cycle;Max_cycle;Signal;HPM_P1;HPM_P2
2022/12/07 00:00:53;;;;;;;50.97;37.17;;;4.40;99.90;;;;;;5055599;28;20466;-68
2022/12/07 00:03:20;;;;;;;56.00;38.20;;;4.40;99.90;;;;;;5057564;28;20437;-68
2022/12/07 00:05:48;;;;;;;51.70;36.27;;;4.50;99.90;;;;;;5056674;28;20437;-68
2022/12/07 00:08:16;;;;;;;59.00;37.13;;;4.40;99.90;;;;;;5037196;28;20470;-68
2022/12/07 00:10:43;;;;;;;51.20;35.00;;;4.40;99.90;;;;;;5041560;28;20458;-68
2022/12/07 00:13:10;;;;;;;58.07;41.80;;;4.40;99.90;;;;;;5055540;28;20833;-68
2022/12/07 00:15:37;;;;;;;48.57;35.00;;;4.40;99.90;;;;;;5056422;28;20469;-68
2022/12/07 00:18:04;;;;;;;56.80;37.30;;;4.50;99.90;;;;;;5057136;28;20497;-68
2022/12/07 00:20:32;;;;;;;52.80;37.03;;;4.40;99.90;;;;;;5056653;28;20473;-68
2022/12/07 00:23:01;;;;;;;58.33;36.53;;;4.40;99.90;;;;;;5056955;28;20473;-68
2022/12/07 00:25:28;;;;;;;56.50;37.70;;;4.50;99.90;;;;;;5056606;28;20949;-68
2022/12/07 00:27:56;;;;;;;50.80;37.33;;;4.40;99.90;;;;;;5056796;28;20441;-68
2022/12/07 00:30:24;;;;;;;54.07;36.90;;;4.40;99.90;;;;;;5056108;28;20462;-68
2022/12/07 00:32:51;;;;;;;60.23;39.50;;;4.40;99.90;;;;;;5056588;28;20490;-68
2022/12/07 00:35:18;;;;;;;59.20;38.37;;;4.40;99.90;;;;;;5057950;28;20914;-68
2022/12/07 00:37:45;;;;;;;54.13;36.43;;;4.50;99.90;;;;;;5060409;28;20497;-68
2022/12/07 00:40:14;;;;;;;54.07;36.60;;;4.40;99.90;;;;;;5060288;28;20462;-68
2022/12/07 00:42:41;;;;;;;58.87;38.20;;;4.50;99.90;;;;;;5060410;28;20458;-68
2022/12/07 00:45:09;;;;;;;59.43;39.03;;;4.50;99.90;;;;;;5060628;28;20805;-68
2022/12/07 00:47:36;;;;;;;50.83;35.80;;;4.50;99.90;;;;;;5060575;28;20444;-68
2022/12/07 00:50:04;;;;;;;54.20;36.13;;;4.50;99.90;;;;;;5060206;28;20462;-68
2022/12/07 00:52:31;;;;;;;51.73;37.00;;;4.50;99.90;;;;;;5059885;28;20930;-68
2022/12/07 00:54:59;;;;;;;56.03;35.70;;;4.40;99.90;;;;;;5060445;28;20463;-68
2022/12/07 00:57:27;;;;;;;55.60;35.87;;;4.50;99.90;;;;;;5059608;28;20465;-68
2022/12/07 00:59:57;;;;;;;54.83;37.50;;;4.50;99.90;;;;;;5059797;28;20466;-68
2022/12/07 01:02:24;;;;;;;53.43;37.67;;;4.50;99.90;;;;;;5060535;28;20552;-68
2022/12/07 01:04:51;;;;;;;61.63;39.37;;;4.50;99.90;;;;;;5059984;28;20491;-68
2022/12/07 01:07:19;;;;;;;63.87;38.63;;;4.50;99.90;;;;;;5059819;28;20462;-67
2022/12/07 01:09:46;;;;;;;60.47;38.83;;;4.50;99.90;;;;;;5059696;28;20968;-67
2022/12/07 01:12:13;;;;;;;61.80;39.17;;;4.50;99.90;;;;;;5060029;28;20486;-67
2022/12/07 01:14:42;;;;;;;57.80;38.43;;;4.50;99.90;;;;;;5060106;28;20762;-67
2022/12/07 01:17:10;;;;;;;62.10;41.10;;;4.50;99.90;;;;;;5060028;28;20469;-68
2022/12/07 01:19:37;;;;;;;55.80;38.17;;;4.50;99.90;;;;;;5059293;28;20869;-68
2022/12/07 01:22:04;;;;;;;62.13;38.07;;;4.50;99.90;;;;;;5059406;28;20462;-67
2022/12/07 01:24:31;;;;;;;50.30;35.47;;;4.50;99.90;;;;;;5059262;28;20482;-67
2022/12/07 01:26:58;;;;;;;51.33;35.43;;;4.50;99.90;;;;;;5059651;28;20462;-68
2022/12/07 01:29:25;;;;;;;51.70;36.03;;;4.60;99.90;;;;;;5060262;28;20454;-68
2022/12/07 01:31:54;;;;;;;59.90;38.13;;;4.50;99.90;;;;;;5059102;28;20467;-68
2022/12/07 01:34:21;;;;;;;57.17;37.70;;;4.50;99.90;;;;;;5060041;28;20567;-67
2022/12/07 01:36:48;;;;;;;52.43;36.67;;;4.50;99.90;;;;;;5059712;28;20478;-67
2022/12/07 01:39:15;;;;;;;54.10;36.50;;;4.60;99.90;;;;;;5059664;28;20468;-67
2022/12/07 01:41:43;;;;;;;57.40;36.10;;;4.50;99.90;;;;;;5059216;28;20462;-67
2022/12/07 01:44:22;;;;;;;54.80;37.77;;;4.50;99.90;;;;;;5059587;28;20464;-67
2022/12/07 01:46:50;;;;;;;57.60;38.23;;;4.50;99.90;;;;;;5058553;28;20465;-67
2022/12/07 01:49:25;;;;;;;53.53;37.80;;;4.50;99.90;;;;;;5059369;28;20486;-67
2022/12/07 01:51:55;;;;;;;55.70;37.20;;;4.50;99.90;;;;;;5058917;28;20462;-67
2022/12/07 01:54:23;;;;;;;57.33;39.43;;;4.50;99.90;;;;;;5059639;28;20462;-67
2022/12/07 01:56:55;;;;;;;67.57;39.77;;;4.40;99.90;;;;;;5058472;28;20473;-67
2022/12/07 01:59:26;;;;;;;55.80;36.83;;;4.50;99.90;;;;;;5059563;28;20485;-67
2022/12/07 02:01:53;;;;;;;58.10;37.17;;;4.50;99.90;;;;;;5058569;28;20806;-67
2022/12/07 02:04:23;;;;;;;54.43;35.77;;;4.50;99.90;;;;;;5059475;28;20455;-67
2022/12/07 02:06:51;;;;;;;57.37;37.73;;;4.50;99.90;;;;;;5059443;28;20749;-67
2022/12/07 02:09:18;;;;;;;59.30;39.63;;;4.50;99.90;;;;;;5059298;28;20462;-67
2022/12/07 02:11:46;;;;;;;64.17;40.67;;;4.40;99.90;;;;;;5059238;28;20959;-67
2022/12/07 02:14:13;;;;;;;62.57;39.07;;;4.50;99.90;;;;;;5057685;28;20490;-67
2022/12/07 02:16:52;;;;;;;61.67;39.33;;;4.50;99.90;;;;;;5058251;28;20466;-67
2022/12/07 02:19:57;;;;;;;62.97;38.17;;;4.40;99.90;;;;;;5058651;28;20461;-67
2022/12/07 02:22:49;;;;;;;65.10;39.63;;;4.50;99.90;;;;;;5059155;28;20769;-67
2022/12/07 02:25:26;;;;;;;57.27;36.33;;;4.40;99.90;;;;;;5058761;28;20911;-67
2022/12/07 02:28:02;;;;;;;59.63;38.97;;;4.50;99.90;;;;;;5059260;28;20462;-67
2022/12/07 02:30:34;;;;;;;64.07;39.63;;;4.50;99.90;;;;;;5057103;28;20910;-67
2022/12/07 02:33:05;;;;;;;59.80;38.63;;;4.50;99.90;;;;;;5058571;28;20513;-67
2022/12/07 02:35:39;;;;;;;58.90;38.17;;;4.50;99.90;;;;;;5058567;28;20476;-67
2022/12/07 02:38:15;;;;;;;63.67;38.33;;;4.40;99.90;;;;;;5059050;28;20466;-67
2022/12/07 02:40:49;;;;;;;54.50;36.93;;;4.50;99.90;;;;;;5057743;28;20462;-67
2022/12/07 02:43:21;;;;;;;56.27;36.70;;;4.50;99.90;;;;;;5058659;28;20458;-68
2022/12/07 02:45:52;;;;;;;59.33;38.00;;;4.50;99.90;;;;;;5058197;28;20466;-67
2022/12/07 02:48:21;;;;;;;50.10;33.73;;;4.50;99.90;;;;;;5058676;28;20549;-67
2022/12/07 02:50:50;;;;;;;53.23;35.27;;;4.50;99.90;;;;;;5057784;28;20462;-68
2022/12/07 02:53:31;;;;;;;45.97;33.10;;;4.40;99.90;;;;;;5058375;28;20490;-68
2022/12/07 02:56:00;;;;;;;46.53;33.00;;;4.50;99.90;;;;;;5058553;28;20462;-67
2022/12/07 02:58:37;;;;;;;50.17;33.23;;;4.50;99.90;;;;;;5057399;28;20454;-68
2022/12/07 03:01:16;;;;;;;44.97;33.47;;;4.50;99.90;;;;;;5057690;28;21015;-68
2022/12/07 03:03:50;;;;;;;47.07;32.40;;;4.50;99.90;;;;;;5058083;28;20443;-67
2022/12/07 03:06:24;;;;;;;47.07;31.77;;;4.50;99.90;;;;;;5058224;28;20473;-67
2022/12/07 03:08:57;;;;;;;43.80;32.00;;;4.50;99.90;;;;;;5057753;28;20556;-67
2022/12/07 03:11:30;;;;;;;42.60;29.03;;;4.40;99.90;;;;;;5057479;28;20767;-67
2022/12/07 03:14:04;;;;;;;39.87;30.17;;;4.50;99.90;;;;;;5058059;28;20557;-67
2022/12/07 03:16:36;;;;;;;46.13;31.50;;;4.40;99.90;;;;;;5057533;28;20810;-68
2022/12/07 03:19:08;;;;;;;42.97;30.30;;;4.40;99.90;;;;;;5058236;28;20529;-67
2022/12/07 03:21:40;;;;;;;43.47;31.77;;;4.40;99.90;;;;;;5057871;28;20466;-67
2022/12/07 03:24:13;;;;;;;36.53;29.00;;;4.40;99.90;;;;;;5038041;28;20577;-67
2022/12/07 03:26:45;;;;;;;48.87;32.80;;;4.40;99.90;;;;;;5043383;28;20492;-68
2022/12/07 03:29:21;;;;;;;40.77;29.37;;;4.40;99.90;;;;;;5057175;28;20466;-67
2022/12/07 03:31:57;;;;;;;39.90;28.27;;;4.40;99.90;;;;;;5057174;28;20766;-67
2022/12/07 03:34:33;;;;;;;44.10;29.00;;;4.40;99.90;;;;;;5056877;28;20584;-67
2022/12/07 03:37:05;;;;;;;38.50;28.20;;;4.40;99.90;;;;;;5056737;28;20771;-67
2022/12/07 03:39:37;;;;;;;37.87;27.50;;;4.40;99.90;;;;;;5057410;28;20445;-67
2022/12/07 03:42:07;;;;;;;42.37;28.50;;;4.30;99.90;;;;;;5057100;28;20922;-67
2022/12/07 03:44:35;;;;;;;40.37;28.90;;;4.40;99.90;;;;;;5056825;28;20757;-68
2022/12/07 03:47:07;;;;;;;40.43;28.70;;;4.30;99.90;;;;;;5057129;28;20896;-67
2022/12/07 03:49:41;;;;;;;36.20;27.30;;;4.30;99.90;;;;;;5057354;28;20461;-67
2022/12/07 03:52:19;;;;;;;39.37;28.37;;;4.20;99.90;;;;;;5057387;28;20466;-67
2022/12/07 03:54:53;;;;;;;46.23;31.63;;;4.20;99.90;;;;;;5056411;28;20498;-67
2022/12/07 03:57:22;;;;;;;41.27;29.73;;;4.20;99.90;;;;;;5056706;28;20556;-67
2022/12/07 03:59:50;;;;;;;38.70;27.27;;;4.20;99.90;;;;;;5057162;28;20465;-67
2022/12/07 04:02:19;;;;;;;45.27;30.63;;;4.20;99.90;;;;;;5056861;28;20554;-67
2022/12/07 04:04:46;;;;;;;36.40;27.20;;;4.20;99.90;;;;;;5056400;28;20462;-67
2022/12/07 04:07:13;;;;;;;39.53;27.00;;;4.30;99.90;;;;;;5056991;28;20467;-67
2022/12/07 04:09:40;;;;;;;34.80;26.00;;;4.20;99.90;;;;;;5056652;28;20462;-67
2022/12/07 04:12:08;;;;;;;34.67;26.10;;;4.10;99.90;;;;;;5057363;28;20596;-67
2022/12/07 04:14:35;;;;;;;37.43;27.33;;;4.10;99.90;;;;;;5056376;28;20482;-67
2022/12/07 04:17:02;;;;;;;41.33;28.60;;;4.10;99.90;;;;;;5056743;28;20465;-67
2022/12/07 04:19:32;;;;;;;37.73;27.90;;;4.20;99.90;;;;;;5056655;28;20472;-67
2022/12/07 04:22:01;;;;;;;40.27;27.03;;;4.10;99.90;;;;;;5057069;28;20465;-67
2022/12/07 04:24:29;;;;;;;43.20;28.33;;;4.20;99.90;;;;;;5055952;28;20925;-67
2022/12/07 04:26:56;;;;;;;37.33;28.20;;;4.10;99.90;;;;;;5056322;28;20458;-67
2022/12/07 04:29:24;;;;;;;38.10;25.83;;;4.20;99.90;;;;;;5056383;28;20470;-67
2022/12/07 04:31:51;;;;;;;36.60;26.50;;;4.10;99.90;;;;;;5056527;28;20568;-67
2022/12/07 04:34:19;;;;;;;34.77;25.80;;;4.10;99.90;;;;;;5056794;28;20508;-67
2022/12/07 04:36:48;;;;;;;32.70;23.87;;;4.10;99.90;;;;;;5056031;28;20458;-67
2022/12/07 04:39:21;;;;;;;31.43;23.83;;;4.10;99.90;;;;;;5056233;28;20773;-67
2022/12/07 04:41:48;;;;;;;35.43;23.50;;;4.10;99.90;;;;;;5056873;28;20462;-67
2022/12/07 04:44:16;;;;;;;35.83;24.73;;;4.00;99.90;;;;;;5056920;28;20516;-67
2022/12/07 04:46:44;;;;;;;37.23;24.13;;;4.00;99.90;;;;;;5055726;28;20458;-67
2022/12/07 04:49:12;;;;;;;30.37;22.30;;;4.00;99.90;;;;;;5056420;28;20445;-67
2022/12/07 04:51:40;;;;;;;28.80;21.93;;;4.00;99.90;;;;;;5056683;28;20470;-67
2022/12/07 04:54:08;;;;;;;36.67;23.87;;;4.00;99.90;;;;;;5056682;28;20493;-67
2022/12/07 04:56:36;;;;;;;29.77;23.20;;;3.90;99.90;;;;;;5056270;28;20878;-67
2022/12/07 04:59:04;;;;;;;31.83;25.97;;;3.90;99.90;;;;;;5056744;28;20899;-67
2022/12/07 05:01:32;;;;;;;30.10;22.93;;;3.90;99.90;;;;;;5056042;28;20469;-67
2022/12/07 05:03:59;;;;;;;27.67;21.03;;;3.90;99.90;;;;;;5056280;28;20469;-67
2022/12/07 05:06:27;;;;;;;28.30;23.30;;;3.90;99.90;;;;;;5056072;28;20470;-67
2022/12/07 05:08:54;;;;;;;28.83;22.77;;;3.90;99.90;;;;;;5056486;28;20463;-67
2022/12/07 05:14:04;;;;;;;26.57;21.10;;;3.90;99.90;;;;;;5055341;28;20988;-67
2022/12/07 05:16:32;;;;;;;29.03;21.27;;;3.90;99.90;;;;;;5056530;28;20937;-67
2022/12/07 05:18:59;;;;;;;33.50;22.40;;;3.90;99.90;;;;;;5054725;28;20444;-67
2022/12/07 05:21:26;;;;;;;26.30;21.17;;;3.90;99.90;;;;;;5036989;28;20485;-67
2022/12/07 05:23:53;;;;;;;27.00;21.20;;;3.90;99.90;;;;;;5039452;28;20466;-67
2022/12/07 05:26:22;;;;;;;30.57;21.10;;;4.00;99.90;;;;;;5050001;28;20789;-67
2022/12/07 05:28:52;;;;;;;31.43;21.23;;;4.00;99.90;;;;;;5058098;28;20466;-67
2022/12/07 05:31:19;;;;;;;31.93;21.50;;;4.00;99.90;;;;;;5059189;28;20745;-67
2022/12/07 05:33:46;;;;;;;30.03;22.20;;;4.00;99.90;;;;;;5059217;28;20780;-67
2022/12/07 05:36:14;;;;;;;26.77;21.07;;;4.00;99.90;;;;;;5059274;28;20470;-67
2022/12/07 05:38:41;;;;;;;32.90;22.93;;;4.00;99.90;;;;;;5058545;28;20466;-67
2022/12/07 05:42:11;;;;;;;31.47;22.57;;;4.00;99.90;;;;;;5059724;28;20462;-67
2022/12/07 05:43:58;;;;;;;33.57;23.33;;;4.00;99.90;;;;;;5058997;28;20490;-67
2022/12/07 05:46:25;;;;;;;34.10;24.23;;;4.00;99.90;;;;;;5059733;28;20458;-67
2022/12/07 05:48:52;;;;;;;31.40;23.10;;;4.00;99.90;;;;;;5058914;28;20776;-67
2022/12/07 05:51:19;;;;;;;30.07;22.17;;;4.00;99.90;;;;;;5058234;28;20471;-67
2022/12/07 05:53:46;;;;;;;32.17;23.27;;;3.90;99.90;;;;;;5058749;28;20560;-67
2022/12/07 05:56:14;;;;;;;31.30;23.20;;;3.90;99.90;;;;;;5058320;28;20557;-67
2022/12/07 06:01:27;;;;;;;35.30;23.83;;;3.90;99.90;;;;;;5057495;28;20474;-67
2022/12/07 06:03:54;;;;;;;36.23;24.90;;;4.00;99.90;;;;;;5057490;28;20454;-67
2022/12/07 06:06:21;;;;;;;36.53;24.53;;;4.00;99.90;;;;;;5057856;28;20470;-67
2022/12/07 06:08:48;;;;;;;32.33;22.50;;;4.00;99.90;;;;;;5057919;28;20461;-67
2022/12/07 06:14:00;;;;;;;33.43;24.43;;;4.00;99.90;;;;;;5051551;28;20469;-67
2022/12/07 06:16:29;;;;;;;38.47;26.00;;;3.90;99.90;;;;;;5057420;28;20761;-67
2022/12/07 06:18:56;;;;;;;36.57;25.23;;;4.00;99.90;;;;;;5056509;28;20466;-67
2022/12/07 06:21:25;;;;;;;39.23;25.57;;;4.00;99.90;;;;;;5057302;28;20481;-67
2022/12/07 06:23:52;;;;;;;39.50;26.00;;;4.00;99.90;;;;;;5057007;28;20635;-67
2022/12/07 06:26:19;;;;;;;36.60;26.43;;;4.00;99.90;;;;;;5058785;28;20458;-67
2022/12/07 06:28:46;;;;;;;37.83;27.30;;;4.10;99.90;;;;;;5057988;28;20974;-67
2022/12/07 06:31:14;;;;;;;42.90;28.73;;;4.00;99.90;;;;;;5058637;28;20458;-67
2022/12/07 06:33:43;;;;;;;38.20;27.37;;;4.00;99.90;;;;;;5057922;28;20493;-67
2022/12/07 06:36:11;;;;;;;40.57;28.17;;;4.00;99.90;;;;;;5059137;28;20463;-67
2022/12/07 06:38:38;;;;;;;46.83;29.07;;;4.00;99.90;;;;;;5057651;28;20553;-65
2022/12/07 06:41:06;;;;;;;44.87;29.97;;;4.00;99.90;;;;;;5058189;28;20547;-65
2022/12/07 06:43:33;;;;;;;43.77;29.80;;;4.00;99.90;;;;;;5058496;28;20488;-65
2022/12/07 06:46:00;;;;;;;46.60;27.33;;;4.00;99.90;;;;;;5058807;28;20463;-65
2022/12/07 06:48:27;;;;;;;40.07;27.67;;;4.00;99.90;;;;;;5058138;28;21294;-65
2022/12/07 06:50:56;;;;;;;40.57;25.93;;;3.90;99.90;;;;;;5058388;28;20466;-65
2022/12/07 06:53:23;;;;;;;40.60;27.50;;;3.90;99.90;;;;;;5058079;28;20821;-65
2022/12/07 06:55:50;;;;;;;35.23;25.63;;;3.90;99.90;;;;;;5057416;28;20486;-65
2022/12/07 06:58:18;;;;;;;34.80;26.00;;;3.80;99.90;;;;;;5058437;28;20462;-65
2022/12/07 07:00:45;;;;;;;41.33;26.90;;;3.70;99.90;;;;;;5057051;28;20485;-65
2022/12/07 07:03:12;;;;;;;41.50;26.40;;;3.80;99.90;;;;;;5057728;28;20455;-65
2022/12/07 07:05:40;;;;;;;32.03;24.93;;;3.80;99.90;;;;;;5056618;28;20557;-65
2022/12/07 07:08:08;;;;;;;39.77;23.67;;;3.80;99.90;;;;;;5044060;28;20512;-65
2022/12/07 07:10:36;;;;;;;38.90;26.00;;;3.90;99.90;;;;;;5056576;28;20729;-65
2022/12/07 07:13:04;;;;;;;39.87;26.70;;;3.90;99.90;;;;;;5056529;28;20494;-66
2022/12/07 07:15:31;;;;;;;36.00;25.50;;;3.90;99.90;;;;;;5057918;28;20501;-65
2022/12/07 07:17:58;;;;;;;36.73;25.83;;;3.80;99.90;;;;;;5057446;28;20469;-65
2022/12/07 07:20:26;;;;;;;34.40;26.27;;;3.80;99.90;;;;;;5057707;28;20433;-65
2022/12/07 07:22:55;;;;;;;40.17;28.30;;;3.70;99.90;;;;;;5056892;28;20466;-66
2022/12/07 07:25:24;;;;;;;38.93;26.37;;;3.70;99.90;;;;;;5057600;28;20489;-65
2022/12/07 07:27:51;;;;;;;45.37;28.60;;;3.80;99.90;;;;;;5057337;28;20462;-65
2022/12/07 07:30:19;;;;;;;43.13;26.40;;;3.80;99.90;;;;;;5057478;28;20481;-65
2022/12/07 07:32:46;;;;;;;43.30;27.33;;;3.80;99.90;;;;;;5056231;28;20561;-65
2022/12/07 07:35:13;;;;;;;39.50;25.20;;;3.80;99.90;;;;;;5057808;28;20496;-67
2022/12/07 07:37:41;;;;;;;34.67;24.00;;;3.80;99.90;;;;;;5056932;28;20462;-67
2022/12/07 07:40:09;;;;;;;35.60;22.63;;;3.80;99.90;;;;;;5057338;28;20902;-67
2022/12/07 07:42:38;;;;;;;33.73;22.17;;;3.70;99.90;;;;;;5057721;28;20964;-66
2022/12/07 07:45:05;;;;;;;38.60;22.00;;;3.70;99.90;;;;;;5056741;28;20462;-66
2022/12/07 07:47:33;;;;;;;28.40;21.53;;;3.60;99.90;;;;;;5057386;28;20464;-65
2022/12/07 07:50:03;;;;;;;35.13;25.07;;;3.70;99.90;;;;;;5057457;28;20757;-65
2022/12/07 07:52:30;;;;;;;36.10;22.20;;;3.70;99.90;;;;;;5057052;28;20748;-65
2022/12/07 07:54:57;;;;;;;31.37;23.40;;;3.70;99.90;;;;;;5057554;28;20509;-65
2022/12/07 07:57:24;;;;;;;34.33;22.03;;;3.60;99.90;;;;;;5056112;28;20462;-65
2022/12/07 07:59:52;;;;;;;34.50;24.77;;;3.60;99.90;;;;;;5056304;28;20899;-65
2022/12/07 08:02:21;;;;;;;33.80;25.87;;;3.60;99.90;;;;;;5057490;28;20514;-65
2022/12/07 08:04:48;;;;;;;37.57;26.57;;;3.60;99.90;;;;;;5056420;28;20455;-65
2022/12/07 08:07:16;;;;;;;35.90;24.53;;;3.60;99.90;;;;;;5057267;28;20469;-65
2022/12/07 08:09:43;;;;;;;36.20;23.83;;;3.60;99.90;;;;;;5056972;28;20469;-65
2022/12/07 08:12:10;;;;;;;32.40;22.67;;;3.70;99.90;;;;;;5056900;28;20735;-66
2022/12/07 08:14:37;;;;;;;32.47;23.80;;;3.70;99.90;;;;;;5055977;28;20490;-65
2022/12/07 08:17:06;;;;;;;37.13;23.10;;;3.70;99.90;;;;;;5056502;28;20457;-65
2022/12/07 08:19:34;;;;;;;36.13;23.63;;;3.80;99.90;;;;;;5056990;28;20463;-65
2022/12/07 08:22:01;;;;;;;38.03;25.47;;;3.90;99.90;;;;;;5057167;28;20481;-65
2022/12/07 08:24:28;;;;;;;38.70;24.80;;;3.90;99.90;;;;;;5045426;28;20474;-65
2022/12/07 08:26:55;;;;;;;37.03;25.23;;;3.90;99.90;;;;;;5056638;28;20882;-65
2022/12/07 08:29:23;;;;;;;37.90;24.83;;;3.90;99.90;;;;;;5057115;28;20745;-65
2022/12/07 08:31:50;;;;;;;37.03;25.33;;;3.90;99.90;;;;;;5057298;28;20485;-65
2022/12/07 08:34:18;;;;;;;38.90;26.47;;;3.90;99.90;;;;;;5056977;28;20897;-66
2022/12/07 08:36:45;;;;;;;39.73;26.47;;;4.00;99.90;;;;;;5056691;28;20467;-66
2022/12/07 08:39:12;;;;;;;40.80;25.80;;;4.00;99.90;;;;;;5056755;28;20477;-66
2022/12/07 08:41:40;;;;;;;40.43;24.53;;;4.10;99.90;;;;;;5056809;28;20466;-65
2022/12/07 08:44:07;;;;;;;34.97;24.67;;;4.10;99.90;;;;;;5056361;28;20466;-66
2022/12/07 08:46:37;;;;;;;37.63;25.93;;;4.30;99.90;;;;;;5056096;28;20437;-66
2022/12/07 08:49:09;;;;;;;36.27;23.63;;;4.40;99.90;;;;;;5056544;28;20462;-66
2022/12/07 08:51:39;;;;;;;35.33;22.77;;;4.30;99.90;;;;;;5054405;28;20474;-66
2022/12/07 08:54:10;;;;;;;33.80;21.97;;;4.30;99.90;;;;;;5056393;28;20463;-66
2022/12/07 08:56:37;;;;;;;30.80;21.60;;;4.40;99.90;;;;;;5057250;28;20462;-66
2022/12/07 08:59:05;;;;;;;36.63;23.20;;;4.30;99.90;;;;;;5059817;28;20508;-66
2022/12/07 09:01:32;;;;;;;36.53;24.80;;;4.30;99.90;;;;;;5059867;28;20488;-66
2022/12/07 09:03:59;;;;;;;42.53;24.80;;;4.10;99.90;;;;;;5060325;28;20467;-66
2022/12/07 09:06:27;;;;;;;37.40;24.30;;;4.10;99.90;;;;;;5060845;28;20464;-66
2022/12/07 09:08:59;;;;;;;39.60;25.97;;;4.10;99.90;;;;;;5060061;28;20466;-65
2022/12/07 09:11:27;;;;;;;40.43;25.43;;;4.20;99.90;;;;;;5060935;28;20500;-65
2022/12/07 09:13:54;;;;;;;35.63;23.93;;;4.30;99.90;;;;;;5059750;28;20485;-66
2022/12/07 09:16:21;;;;;;;31.30;22.40;;;4.20;99.90;;;;;;5060415;28;20536;-65
2022/12/07 09:18:48;;;;;;;41.73;23.23;;;4.20;99.90;;;;;;5060136;28;20461;-66
2022/12/07 09:21:15;;;;;;;32.97;23.10;;;4.20;99.90;;;;;;5059831;28;20466;-66
2022/12/07 09:23:43;;;;;;;36.10;24.00;;;4.20;99.90;;;;;;5057410;28;20520;-65
2022/12/07 09:26:11;;;;;;;32.00;23.60;;;4.20;99.90;;;;;;5059839;28;20458;-66
2022/12/07 09:28:38;;;;;;;35.63;23.80;;;4.20;99.90;;;;;;5058404;28;20462;-65
2022/12/07 09:31:07;;;;;;;35.53;23.20;;;4.30;99.90;;;;;;5058636;28;20876;-66
2022/12/07 09:33:34;;;;;;;32.77;22.20;;;4.20;99.90;;;;;;5058898;28;20487;-66
2022/12/07 09:36:02;;;;;;;33.90;22.93;;;4.20;99.90;;;;;;5058503;28;20490;-66
2022/12/07 09:38:31;;;;;;;37.47;23.10;;;4.20;99.90;;;;;;5057919;28;20466;-66
2022/12/07 09:40:58;;;;;;;33.80;23.37;;;4.30;99.90;;;;;;5058107;28;20443;-66
2022/12/07 09:43:27;;;;;;;34.40;23.17;;;4.30;99.90;;;;;;5059509;28;20466;-65
2022/12/07 09:45:56;;;;;;;34.83;24.10;;;4.30;99.90;;;;;;5059888;28;20462;-65
2022/12/07 09:48:28;;;;;;;32.30;23.63;;;4.30;99.90;;;;;;5060010;28;20462;-66
2022/12/07 09:50:57;;;;;;;27.47;21.23;;;4.20;99.90;;;;;;5059291;28;20463;-65
2022/12/07 09:53:28;;;;;;;35.87;22.63;;;4.30;99.90;;;;;;5059659;28;20919;-65
2022/12/07 09:55:56;;;;;;;34.00;22.97;;;4.40;99.90;;;;;;5059683;28;20486;-65
2022/12/07 09:58:27;;;;;;;29.40;22.73;;;4.40;99.90;;;;;;5059786;28;20455;-65
2022/12/07 10:00:56;;;;;;;32.97;24.30;;;4.30;99.90;;;;;;5059246;28;20866;-65
2022/12/07 10:03:23;;;;;;;31.33;22.60;;;4.30;99.90;;;;;;5058469;28;20458;-65
2022/12/07 10:05:52;;;;;;;32.27;23.13;;;4.30;99.90;;;;;;5059451;28;20906;-65
2022/12/07 10:08:20;;;;;;;34.43;23.37;;;4.40;99.90;;;;;;5059227;28;20462;-65
2022/12/07 10:10:51;;;;;;;38.20;26.90;;;4.40;99.90;;;;;;5058497;28;20466;-65
2022/12/07 10:13:22;;;;;;;31.90;23.07;;;4.50;99.90;;;;;;5059245;28;20463;-65
2022/12/07 10:15:54;;;;;;;26.67;21.60;;;4.60;99.90;;;;;;5058978;28;20486;-65
2022/12/07 10:18:28;;;;;;;27.13;21.50;;;4.50;99.90;;;;;;5059450;28;20469;-65
2022/12/07 10:21:16;;;;;;;26.97;20.27;;;4.60;99.90;;;;;;5059012;28;20466;-65
2022/12/07 10:23:59;;;;;;;28.97;20.00;;;4.70;99.90;;;;;;5059023;28;20777;-65
2022/12/07 10:26:32;;;;;;;29.10;21.20;;;4.80;99.90;;;;;;5057383;28;20432;-65
2022/12/07 10:29:02;;;;;;;26.30;20.57;;;4.90;99.90;;;;;;5045735;28;20481;-65
2022/12/07 10:31:31;;;;;;;26.47;18.40;;;5.00;99.90;;;;;;5058175;28;20478;-65
2022/12/07 10:34:00;;;;;;;22.43;18.23;;;4.90;99.90;;;;;;5059185;28;20457;-65
2022/12/07 10:36:34;;;;;;;27.00;18.40;;;4.90;99.90;;;;;;5058837;28;20482;-65
2022/12/07 10:39:05;;;;;;;22.00;15.90;;;4.90;99.90;;;;;;5058323;28;20469;-65
2022/12/07 10:41:32;;;;;;;19.13;15.60;;;4.90;99.90;;;;;;5054880;28;20878;-64
2022/12/07 10:43:59;;;;;;;22.10;16.97;;;4.80;99.90;;;;;;5057194;28;20481;-65
2022/12/07 10:47:14;;;;;;;23.13;16.00;;;4.70;99.90;;;;;;5057254;28;20462;-65
2022/12/07 10:50:41;;;;;;;21.20;17.30;;;4.80;99.90;;;;;;5056571;28;20737;-65
2022/12/07 10:53:39;;;;;;;23.47;16.10;;;5.10;99.90;;;;;;5056909;28;20433;-65
2022/12/07 10:56:34;;;;;;;22.00;16.77;;;5.20;99.90;;;;;;5058472;28;20494;-65
2022/12/07 10:59:22;;;;;;;26.53;18.97;;;5.20;99.90;;;;;;5054720;28;20478;-65
2022/12/07 11:01:55;;;;;;;23.90;19.53;;;5.10;99.90;;;;;;5057666;28;20466;-65
2022/12/07 11:04:30;;;;;;;28.10;19.40;;;5.10;99.90;;;;;;5058752;28;20437;-65
2022/12/07 11:07:06;;;;;;;25.63;19.60;;;5.10;99.90;;;;;;5056240;28;20886;-65
2022/12/07 11:09:59;;;;;;;25.40;18.73;;;5.10;99.90;;;;;;5057169;28;20512;-65
2022/12/07 11:12:36;;;;;;;23.97;17.80;;;5.10;99.90;;;;;;5056933;28;20472;-64
2022/12/07 11:15:11;;;;;;;32.87;21.63;;;5.10;99.90;;;;;;5056167;28;20466;-64
2022/12/07 11:17:49;;;;;;;30.27;21.53;;;5.20;99.90;;;;;;5056660;28;20458;-64
2022/12/07 11:20:36;;;;;;;25.00;21.37;;;5.50;99.90;;;;;;5055638;28;20466;-64
2022/12/07 11:23:14;;;;;;;29.13;21.60;;;5.50;99.90;;;;;;5056243;28;20470;-65
2022/12/07 11:25:50;;;;;;;35.20;21.80;;;5.50;99.90;;;;;;5057537;28;20485;-64
2022/12/07 11:28:33;;;;;;;30.07;22.67;;;5.40;99.90;;;;;;5057454;28;20891;-64
2022/12/07 11:31:13;;;;;;;31.27;22.43;;;5.50;99.90;;;;;;5057983;28;20736;-64
2022/12/07 11:33:46;;;;;;;28.70;23.10;;;5.50;99.90;;;;;;5057701;28;20476;-65
2022/12/07 11:36:31;;;;;;;32.30;22.10;;;5.60;99.90;;;;;;5057677;28;20493;-64
2022/12/07 11:39:03;;;;;;;32.03;24.10;;;5.60;99.90;;;;;;5057437;28;20469;-64
2022/12/07 11:41:35;;;;;;;34.17;22.90;;;5.60;99.90;;;;;;5057906;28;20512;-62
2022/12/07 11:44:18;;;;;;;31.80;24.30;;;5.60;99.90;;;;;;5057614;28;20462;-62
2022/12/07 11:46:51;;;;;;;27.13;21.00;;;5.50;99.90;;;;;;5057052;28;20487;-64
2022/12/07 11:49:28;;;;;;;28.33;22.37;;;5.60;99.90;;;;;;5057307;28;20528;-64
2022/12/07 11:52:01;;;;;;;25.10;21.40;;;5.60;99.90;;;;;;5057629;28;20461;-64
2022/12/07 11:54:36;;;;;;;27.97;20.13;;;5.60;99.90;;;;;;5057125;28;20462;-64
2022/12/07 11:57:09;;;;;;;23.43;20.40;;;5.70;99.90;;;;;;5054995;28;20497;-64
2022/12/07 11:59:43;;;;;;;24.13;19.00;;;5.70;99.90;;;;;;5057392;28;20746;-65
2022/12/07 12:02:15;;;;;;;25.10;18.70;;;5.60;99.90;;;;;;5057407;28;20509;-64
2022/12/07 12:04:52;;;;;;;26.27;20.27;;;5.50;99.90;;;;;;5056567;28;20441;-64
2022/12/07 12:07:23;;;;;;;22.63;18.73;;;5.60;99.90;;;;;;5056557;28;20440;-65
2022/12/07 12:09:55;;;;;;;21.90;18.30;;;5.50;99.90;;;;;;5057018;28;20488;-65
2022/12/07 12:12:53;;;;;;;19.67;17.67;;;5.60;99.90;;;;;;5057475;28;20574;-65
2022/12/07 12:15:30;;;;;;;20.00;16.33;;;5.50;99.90;;;;;;5057192;28;20462;-65
2022/12/07 12:18:26;;;;;;;20.57;15.93;;;5.40;99.90;;;;;;5057174;28;20902;-65
2022/12/07 12:20:57;;;;;;;18.10;16.10;;;5.40;99.90;;;;;;5040224;28;20748;-65
2022/12/07 12:23:28;;;;;;;21.37;16.77;;;5.30;99.90;;;;;;5056920;28;20466;-65
2022/12/07 12:25:58;;;;;;;20.33;16.17;;;5.30;99.90;;;;;;5057300;28;20505;-62
2022/12/07 12:28:30;;;;;;;18.57;15.93;;;5.30;99.90;;;;;;5056398;28;20891;-65
2022/12/07 12:31:12;;;;;;;18.43;16.63;;;5.10;99.90;;;;;;5058501;28;20469;-65
2022/12/07 12:33:44;;;;;;;31.70;18.13;;;5.00;99.90;;;;;;5061151;28;20469;-65
2022/12/07 12:36:26;;;;;;;25.07;17.57;;;5.10;99.90;;;;;;5060304;28;20485;-65
2022/12/07 12:39:13;;;;;;;20.40;16.93;;;5.20;99.90;;;;;;5060143;28;20469;-65
2022/12/07 12:42:07;;;;;;;23.03;15.77;;;5.30;99.90;;;;;;5061328;28;20465;-65
2022/12/07 12:45:17;;;;;;;24.00;19.53;;;5.40;99.90;;;;;;5060931;28;20462;-65
2022/12/07 12:47:58;;;;;;;29.33;25.50;;;5.40;99.90;;;;;;5060950;28;20905;-65
2022/12/07 12:50:28;;;;;;;27.80;17.17;;;5.40;99.90;;;;;;5060905;28;20435;-62
2022/12/07 12:53:20;;;;;;;19.67;17.03;;;5.50;99.90;;;;;;5060431;28;20462;-65
2022/12/07 12:56:24;;;;;;;20.83;15.23;;;5.40;99.90;;;;;;5059509;28;20472;-65
2022/12/07 12:59:26;;;;;;;22.80;14.80;;;5.40;99.90;;;;;;5060539;28;20462;-65
2022/12/07 13:01:56;;;;;;;17.00;15.00;;;5.50;99.90;;;;;;5041258;28;20774;-65
2022/12/07 13:04:50;;;;;;;22.80;15.60;;;5.40;99.90;;;;;;5040533;28;20459;-65